Umatac, Guam
Current Conditions -  °F | °C
As of 4:54 AM on Saturday 29 Nov 2014 (Local Time) from PGUM Reporting Station
Clear Clear  
Wind Chill: 82°   Ceiling: Unl
Heat Index: 86°   Visibility: 10mi
Dew Point: 70°   Wind: 17mph
Humidity: 67%   Direction: 70°ENE
Pressure: 29.87"   Gusts: 25mph
Location:  13.3°N, 144.66°E
Report Text: PGUM 281854Z 07015G22KT 10SM CLR 28/21 A2987 RMK AO2 SLP105 T02780211
Loading
Personal Weather Stations






























Interactive Weather Map New forecast layout! Learn more

10-Day Weather Forecast

Advertisements
Track Severe Weather on mobile